createdAt,value
2022-10-06T00:04:50.641Z,11.84
2022-10-06T00:10:12.853Z,11.83
2022-10-06T00:15:34.984Z,11.70
2022-10-06T00:20:58.264Z,11.65
2022-10-06T00:26:20.070Z,11.59
2022-10-06T00:31:41.876Z,11.49
2022-10-06T00:37:03.705Z,11.58
2022-10-06T00:42:31.351Z,11.55
2022-10-06T00:47:56.273Z,11.45
2022-10-06T00:53:18.347Z,11.45
2022-10-06T00:58:40.331Z,11.43
2022-10-06T01:04:09.382Z,11.37
2022-10-06T01:09:31.638Z,11.33
2022-10-06T01:14:53.975Z,11.40
2022-10-06T01:20:18.144Z,11.36
2022-10-06T01:25:40.059Z,11.34
2022-10-06T01:31:02.715Z,11.36
2022-10-06T01:36:24.635Z,11.30
2022-10-06T01:41:46.443Z,11.34
2022-10-06T01:47:08.654Z,11.23
2022-10-06T01:52:30.511Z,11.32
2022-10-06T01:57:52.742Z,11.21
2022-10-06T02:03:14.561Z,11.24
2022-10-06T02:08:36.604Z,11.29
2022-10-06T02:13:58.621Z,11.31
2022-10-06T02:19:20.444Z,11.30
2022-10-06T02:24:42.252Z,11.17
2022-10-06T02:30:06.100Z,11.29
2022-10-06T02:35:28.183Z,11.37
2022-10-06T02:46:13.956Z,11.29
2022-10-06T02:51:35.846Z,11.27
2022-10-06T02:56:57.699Z,11.25
2022-10-06T03:02:19.861Z,11.24
2022-10-06T03:07:41.735Z,11.29
2022-10-06T03:13:03.579Z,11.20
2022-10-06T03:18:25.907Z,11.30
2022-10-06T03:23:50.435Z,11.31
2022-10-06T03:29:12.578Z,11.33
2022-10-06T03:34:34.481Z,11.27
2022-10-06T03:39:56.686Z,11.32
2022-10-06T03:45:18.643Z,11.35
2022-10-06T03:50:40.548Z,11.38
2022-10-06T03:56:07.844Z,11.37
2022-10-06T04:01:36.088Z,11.36
2022-10-06T04:06:58.085Z,11.30
2022-10-06T04:12:19.950Z,11.27
2022-10-06T04:17:41.914Z,11.30
2022-10-06T04:23:05.370Z,11.47
2022-10-06T04:28:27.639Z,11.48
2022-10-06T04:33:57.997Z,11.46
2022-10-06T04:39:19.944Z,11.48
2022-10-06T04:44:41.750Z,11.52
2022-10-06T04:50:04.023Z,11.62
2022-10-06T04:55:25.856Z,11.80
2022-10-06T05:00:48.759Z,12.00
2022-10-06T05:06:13.656Z,12.14
2022-10-06T05:11:35.916Z,13.60
2022-10-06T05:16:57.701Z,16.37
2022-10-06T05:22:19.554Z,19.45
2022-10-06T05:27:41.389Z,21.18
2022-10-06T05:33:03.340Z,23.92
2022-10-06T05:38:26.234Z,25.17
2022-10-06T05:43:48.598Z,27.16
2022-10-06T05:49:10.567Z,26.98
2022-10-06T05:54:32.533Z,28.60
2022-10-06T05:59:54.379Z,27.85
2022-10-06T06:12:42.064Z,22.94
2022-10-06T06:18:03.991Z,24.09
2022-10-06T06:23:31.369Z,24.31
2022-10-06T06:28:55.719Z,26.79
2022-10-06T06:34:17.679Z,30.50
2022-10-06T06:39:39.536Z,28.04
2022-10-06T06:45:01.383Z,23.99
2022-10-06T06:50:23.277Z,22.00
2022-10-06T06:55:49.421Z,20.06
2022-10-06T07:01:13.825Z,19.05
2022-10-06T07:06:37.857Z,18.37
2022-10-06T07:11:59.689Z,17.96
2022-10-06T07:17:21.565Z,17.76
2022-10-06T07:22:43.432Z,17.33
2022-10-06T07:28:05.295Z,17.24
2022-10-06T07:33:27.303Z,17.41
2022-10-06T07:38:49.181Z,17.54
2022-10-06T07:44:11.018Z,17.58
2022-10-06T07:49:33.209Z,17.03
2022-10-06T07:54:56.353Z,17.21
2022-10-06T08:00:18.674Z,17.13
2022-10-06T08:05:40.549Z,17.34
2022-10-06T08:11:02.969Z,17.76
2022-10-06T08:16:26.988Z,18.06
2022-10-06T08:21:48.891Z,18.15
2022-10-06T08:27:10.728Z,18.72
2022-10-06T08:32:33.481Z,22.00
2022-10-06T08:37:55.356Z,26.81
2022-10-06T08:43:20.344Z,28.70
2022-10-06T08:48:43.748Z,28.61
2022-10-06T08:54:14.165Z,30.17
2022-10-06T08:59:36.379Z,26.92
2022-10-06T09:05:04.261Z,32.38
2022-10-06T09:10:34.199Z,26.90
2022-10-06T09:16:04.618Z,25.21
2022-10-06T09:21:45.003Z,24.12
2022-10-06T09:27:20.581Z,23.70
2022-10-06T09:32:47.317Z,23.08
2022-10-06T09:38:09.485Z,22.71
2022-10-06T09:43:31.436Z,25.25
2022-10-06T09:49:15.962Z,24.95
2022-10-06T09:54:37.780Z,26.87
2022-10-06T10:00:01.593Z,25.84
2022-10-06T10:05:24.748Z,24.76
2022-10-06T10:10:46.609Z,24.24
2022-10-06T10:16:09.284Z,24.52
2022-10-06T10:21:33.437Z,24.27
2022-10-06T10:27:10.046Z,24.25
2022-10-06T10:32:45.204Z,24.33
2022-10-06T10:38:15.017Z,23.70
2022-10-06T10:43:51.055Z,23.05
2022-10-06T10:49:12.744Z,21.91
2022-10-06T10:55:01.313Z,22.24
2022-10-06T11:00:25.815Z,21.58
2022-10-06T11:06:03.210Z,21.01
2022-10-06T11:11:51.960Z,20.98
2022-10-06T11:17:35.636Z,21.06
2022-10-06T11:23:18.639Z,21.41
2022-10-06T11:29:05.401Z,21.53
2022-10-06T11:34:27.188Z,21.75
2022-10-06T11:39:51.889Z,22.00
2022-10-06T11:45:23.465Z,22.66
2022-10-06T11:50:45.329Z,22.63
2022-10-06T11:56:19.524Z,22.43
2022-10-06T12:01:41.362Z,22.45
2022-10-06T12:07:04.385Z,21.56
2022-10-06T12:12:26.162Z,21.75
2022-10-06T12:18:13.773Z,21.88
2022-10-06T12:24:03.979Z,21.41
2022-10-06T12:29:37.605Z,21.96
2022-10-06T12:35:38.694Z,21.82
2022-10-06T12:41:00.664Z,21.94
2022-10-06T12:46:29.129Z,21.22
2022-10-06T12:51:56.057Z,21.32
2022-10-06T12:57:20.854Z,21.08
2022-10-06T13:02:44.137Z,20.89
2022-10-06T13:08:20.722Z,20.84
2022-10-06T13:13:54.559Z,20.74
2022-10-06T13:19:26.833Z,20.82
2022-10-06T13:24:48.688Z,20.81
2022-10-06T13:30:22.091Z,20.90
2022-10-06T13:35:44.291Z,20.69
2022-10-06T13:41:06.183Z,20.60
2022-10-06T13:46:31.039Z,20.56
2022-10-06T13:51:55.082Z,20.25
2022-10-06T13:57:48.675Z,19.99
2022-10-06T14:03:11.269Z,19.94
2022-10-06T14:08:33.781Z,19.83
2022-10-06T14:13:59.301Z,19.82
2022-10-06T14:19:47.469Z,19.65
2022-10-06T14:25:12.638Z,19.75
2022-10-06T14:30:34.542Z,19.86
2022-10-06T14:35:56.657Z,19.87
2022-10-06T14:41:19.686Z,19.72
2022-10-06T14:46:43.609Z,19.53
2022-10-06T14:52:05.508Z,19.43
2022-10-06T14:57:27.305Z,19.31
2022-10-06T15:02:49.571Z,19.08
2022-10-06T15:08:11.526Z,18.86
2022-10-06T15:13:34.030Z,18.74
2022-10-06T15:18:58.390Z,18.67
2022-10-06T15:24:20.331Z,18.53
2022-10-06T15:29:42.199Z,18.28
2022-10-06T15:35:04.261Z,18.13
2022-10-06T15:40:26.105Z,17.97
2022-10-06T15:45:52.923Z,17.87
2022-10-06T15:51:14.764Z,17.65
2022-10-06T15:56:37.092Z,17.45
2022-10-06T16:02:01.054Z,17.34
2022-10-06T16:07:22.952Z,17.16
2022-10-06T16:12:44.787Z,17.01
2022-10-06T16:18:06.649Z,16.83
2022-10-06T16:23:28.642Z,16.67
2022-10-06T16:28:51.484Z,16.58
2022-10-06T16:34:13.797Z,16.38
2022-10-06T16:39:35.577Z,16.27
2022-10-06T16:44:57.402Z,16.17
2022-10-06T16:50:19.330Z,16.05
2022-10-06T16:55:41.934Z,15.88
2022-10-06T17:01:04.102Z,15.81
2022-10-06T17:06:26.141Z,15.66
2022-10-06T17:11:50.928Z,15.56
2022-10-06T17:17:12.947Z,15.41
2022-10-06T17:22:34.794Z,15.31
2022-10-06T17:27:56.685Z,15.21
2022-10-06T17:33:18.635Z,15.18
2022-10-06T17:38:45.773Z,15.01
2022-10-06T17:44:12.459Z,15.01
2022-10-06T17:49:35.498Z,14.55
2022-10-06T17:54:57.312Z,14.85
2022-10-06T18:00:19.246Z,14.89
2022-10-06T18:05:41.049Z,14.79
2022-10-06T18:11:03.013Z,14.76
2022-10-06T18:16:27.856Z,14.67
2022-10-06T18:21:49.739Z,14.62
2022-10-06T18:27:11.551Z,14.54
2022-10-06T18:38:15.175Z,14.39
2022-10-06T18:43:37.686Z,14.35
2022-10-06T18:49:02.086Z,14.30
2022-10-06T18:54:28.195Z,14.24
2022-10-06T18:59:50.002Z,14.13
2022-10-06T19:05:11.926Z,14.09
2022-10-06T19:10:34.522Z,14.03
2022-10-06T19:15:56.330Z,13.91
2022-10-06T19:21:18.146Z,13.86
2022-10-06T19:26:45.668Z,13.83
2022-10-06T19:32:08.626Z,13.76
2022-10-06T19:37:31.170Z,13.65
2022-10-06T19:42:53.017Z,13.54
2022-10-06T19:48:14.826Z,13.48
2022-10-06T19:53:36.660Z,13.45
2022-10-06T19:59:00.154Z,13.45
2022-10-06T20:04:24.060Z,13.28
2022-10-06T20:09:45.945Z,13.30
2022-10-06T20:15:08.514Z,13.29
2022-10-06T20:20:30.324Z,13.20
2022-10-06T20:25:52.115Z,13.14
2022-10-06T20:31:23.430Z,13.09
2022-10-06T20:36:45.853Z,13.01
2022-10-06T20:42:13.987Z,12.96
2022-10-06T20:47:36.886Z,12.80
2022-10-06T20:52:58.731Z,12.75
2022-10-06T20:58:20.556Z,12.69
2022-10-06T21:03:49.948Z,12.62
2022-10-06T21:09:14.532Z,12.50
2022-10-06T21:14:36.411Z,12.41
2022-10-06T21:19:58.312Z,12.32
2022-10-06T21:25:20.188Z,12.22
2022-10-06T21:30:42.075Z,12.20
2022-10-06T21:36:05.067Z,12.18
2022-10-06T21:41:31.602Z,12.06
2022-10-06T21:46:55.358Z,11.99
2022-10-06T21:52:17.243Z,11.84
2022-10-06T21:57:39.109Z,11.75
2022-10-06T22:03:00.948Z,11.71
2022-10-06T22:08:22.877Z,11.70
2022-10-06T22:13:48.202Z,11.61
2022-10-06T22:19:11.808Z,11.44
2022-10-06T22:24:33.624Z,11.37
2022-10-06T22:29:55.463Z,11.19
2022-10-06T22:35:17.350Z,11.01
2022-10-06T22:40:39.173Z,10.89
2022-10-06T22:46:01.452Z,10.86
2022-10-06T22:51:23.853Z,10.71
2022-10-06T22:56:45.903Z,10.59
2022-10-06T23:02:07.732Z,10.49
2022-10-06T23:07:29.641Z,10.48
2022-10-06T23:12:56.194Z,10.38
2022-10-06T23:18:18.036Z,10.28
2022-10-06T23:23:39.894Z,10.24
2022-10-06T23:29:01.898Z,10.23
2022-10-06T23:34:23.792Z,10.08
2022-10-06T23:39:45.646Z,10.03
2022-10-06T23:45:07.911Z,9.95
2022-10-06T23:50:29.755Z,9.96
2022-10-06T23:55:51.709Z,9.92
